createdAt,value
2019-05-14T00:01:35.444Z,1.93
2019-05-14T00:04:06.836Z,1.60
2019-05-14T00:06:38.045Z,1.50
2019-05-14T00:09:09.373Z,1.57
2019-05-14T00:11:42.093Z,1.53
2019-05-14T00:14:13.627Z,1.23
2019-05-14T00:16:44.792Z,1.73
2019-05-14T00:19:15.976Z,1.37
2019-05-14T00:21:47.341Z,2.03
2019-05-14T00:24:18.600Z,1.87
2019-05-14T00:26:51.570Z,1.50
2019-05-14T00:29:22.760Z,1.60
2019-05-14T00:31:53.950Z,1.60
2019-05-14T00:34:25.197Z,3.53
2019-05-14T00:36:56.728Z,2.00
2019-05-14T00:39:27.981Z,1.90
2019-05-14T00:42:01.626Z,1.60
2019-05-14T00:44:32.468Z,1.87
2019-05-14T00:47:03.750Z,2.20
2019-05-14T00:49:35.029Z,2.00
2019-05-14T00:52:06.226Z,1.60
2019-05-14T00:54:38.762Z,2.03
2019-05-14T00:57:11.901Z,1.97
2019-05-14T00:59:42.827Z,1.73
2019-05-14T01:02:14.016Z,1.97
2019-05-14T01:04:45.289Z,1.97
2019-05-14T01:07:16.497Z,1.60
2019-05-14T01:09:47.707Z,2.10
2019-05-14T01:12:21.249Z,2.00
2019-05-14T01:15:06.662Z,1.97
2019-05-14T01:17:24.607Z,2.07
2019-05-14T01:19:55.790Z,2.07
2019-05-14T01:22:26.975Z,1.97
2019-05-14T01:24:58.254Z,2.10
2019-05-14T01:27:31.609Z,2.50
2019-05-14T01:30:02.441Z,2.37
2019-05-14T01:32:33.603Z,2.40
2019-05-14T01:35:05.238Z,2.10
2019-05-14T01:37:36.376Z,2.07
2019-05-14T01:40:08.429Z,2.77
2019-05-14T01:42:41.611Z,2.17
2019-05-14T01:45:24.231Z,2.37
2019-05-14T01:47:45.752Z,2.07
2019-05-14T01:50:17.629Z,2.10
2019-05-14T01:52:48.870Z,2.77
2019-05-14T01:55:21.882Z,3.10
2019-05-14T01:57:53.049Z,2.90
2019-05-14T02:00:24.607Z,2.50
2019-05-14T02:02:55.853Z,2.90
2019-05-14T02:05:27.104Z,4.33
2019-05-14T02:07:58.349Z,3.20
2019-05-14T02:10:31.515Z,2.67
2019-05-14T02:13:02.596Z,2.50
2019-05-14T02:15:39.025Z,3.43
2019-05-14T02:18:06.769Z,3.13
2019-05-14T02:20:38.125Z,3.47
2019-05-14T02:23:09.321Z,3.57
2019-05-14T02:25:41.255Z,2.90
2019-05-14T02:28:12.648Z,3.47
2019-05-14T02:30:52.559Z,4.30
2019-05-14T02:33:19.156Z,3.67
2019-05-14T02:35:49.667Z,3.63
2019-05-14T02:38:20.909Z,3.10
2019-05-14T02:40:52.191Z,3.57
2019-05-14T02:43:23.575Z,3.53
2019-05-14T02:46:09.565Z,3.73
2019-05-14T02:48:29.381Z,3.90
2019-05-14T02:51:00.864Z,4.30
2019-05-14T02:53:32.183Z,4.13
2019-05-14T02:56:03.304Z,3.90
2019-05-14T02:58:34.653Z,4.70
2019-05-14T03:01:09.255Z,4.63
2019-05-14T03:03:40.120Z,4.33
2019-05-14T03:06:11.884Z,3.47
2019-05-14T03:08:43.203Z,4.63
2019-05-14T03:11:14.692Z,3.80
2019-05-14T03:13:49.287Z,3.80
2019-05-14T03:16:30.017Z,3.80
2019-05-14T03:18:51.896Z,4.63
2019-05-14T03:21:23.311Z,5.77
2019-05-14T03:23:54.656Z,3.80
2019-05-14T03:26:28.638Z,4.17
2019-05-14T03:29:00.049Z,4.43
2019-05-14T03:31:33.508Z,4.57
2019-05-14T03:34:04.756Z,4.53
2019-05-14T03:36:36.170Z,3.80
2019-05-14T03:39:10.540Z,4.47
2019-05-14T03:41:42.090Z,4.43
2019-05-14T03:44:13.337Z,5.30
2019-05-14T03:46:54.315Z,4.80
2019-05-14T03:49:19.802Z,4.40
2019-05-14T03:51:50.715Z,4.60
2019-05-14T03:54:21.982Z,4.77
2019-05-14T03:56:53.215Z,5.13
2019-05-14T03:59:24.572Z,5.07
2019-05-14T04:01:59.502Z,4.83
2019-05-14T04:04:30.178Z,5.40
2019-05-14T04:07:04.501Z,4.27
2019-05-14T04:09:39.991Z,4.93
2019-05-14T04:12:10.787Z,4.63
2019-05-14T04:14:49.850Z,4.60
2019-05-14T04:17:32.351Z,4.97
2019-05-14T04:20:00.376Z,4.70
2019-05-14T04:22:34.679Z,4.70
2019-05-14T04:25:10.830Z,5.27
2019-05-14T04:27:44.438Z,3.97
2019-05-14T04:30:20.599Z,4.87
2019-05-14T04:32:52.673Z,5.13
2019-05-14T04:35:24.497Z,4.87
2019-05-14T04:37:58.693Z,4.60
2019-05-14T04:40:29.658Z,5.80
2019-05-14T04:43:01.147Z,5.80
2019-05-14T04:45:32.468Z,5.50
2019-05-14T04:48:21.441Z,5.13
2019-05-14T04:50:40.232Z,5.80
2019-05-14T04:53:10.072Z,5.30
2019-05-14T04:55:41.327Z,5.90
2019-05-14T04:58:12.513Z,4.93
2019-05-14T05:00:43.775Z,5.80
2019-05-14T05:03:15.018Z,5.30
2019-05-14T05:05:46.260Z,5.80
2019-05-14T05:08:19.939Z,6.17
2019-05-14T05:10:50.513Z,5.67
2019-05-14T05:13:21.798Z,6.23
2019-05-14T05:15:53.063Z,5.30
2019-05-14T05:18:24.351Z,5.20
2019-05-14T05:20:55.602Z,5.13
2019-05-14T05:23:28.276Z,6.40
2019-05-14T05:25:59.813Z,5.00
2019-05-14T05:28:35.498Z,4.83
2019-05-14T05:31:11.806Z,4.20
2019-05-14T05:33:46.125Z,4.53
2019-05-14T05:36:18.726Z,5.07
2019-05-14T05:38:49.975Z,5.07
2019-05-14T05:41:21.151Z,5.00
2019-05-14T05:43:52.395Z,4.50
2019-05-14T05:46:28.365Z,3.90
2019-05-14T05:49:00.131Z,4.60
2019-05-14T05:51:31.472Z,4.27
2019-05-14T05:54:02.644Z,3.73
2019-05-14T05:56:41.375Z,3.87
2019-05-14T05:59:12.658Z,4.13
2019-05-14T06:01:46.464Z,3.53
2019-05-14T06:04:18.184Z,3.10
2019-05-14T06:06:49.679Z,4.53
2019-05-14T06:09:20.912Z,3.77
2019-05-14T06:11:52.146Z,3.40
2019-05-14T06:14:23.358Z,3.30
2019-05-14T06:16:54.593Z,2.97
2019-05-14T06:19:25.884Z,3.27
2019-05-14T06:21:59.457Z,2.93
2019-05-14T06:24:30.092Z,3.20
2019-05-14T06:27:01.283Z,3.30
2019-05-14T06:29:32.437Z,3.10
2019-05-14T06:32:03.665Z,2.80
2019-05-14T06:34:38.246Z,4.53
2019-05-14T06:37:09.434Z,2.80
2019-05-14T06:39:40.684Z,3.33
2019-05-14T06:42:12.111Z,2.90
2019-05-14T06:44:43.244Z,3.17
2019-05-14T06:47:14.419Z,4.03
2019-05-14T06:49:45.657Z,3.20
2019-05-14T06:52:18.714Z,3.47
2019-05-14T06:54:49.901Z,4.20
2019-05-14T06:57:21.286Z,4.17
2019-05-14T06:59:53.137Z,4.40
2019-05-14T07:02:24.443Z,3.57
2019-05-14T07:04:55.700Z,4.27
2019-05-14T07:07:29.710Z,3.90
2019-05-14T07:09:59.840Z,4.50
2019-05-14T07:12:31.198Z,5.40
2019-05-14T07:15:02.371Z,5.10
2019-05-14T07:17:35.089Z,4.67
2019-05-14T07:20:08.863Z,5.03
2019-05-14T07:22:40.310Z,5.10
2019-05-14T07:25:12.340Z,5.27
2019-05-14T07:27:43.593Z,4.10
2019-05-14T07:30:15.540Z,4.70
2019-05-14T07:32:48.443Z,4.30
2019-05-14T07:35:20.775Z,4.00
2019-05-14T07:37:51.981Z,4.00
2019-05-14T07:40:23.242Z,4.83
2019-05-14T07:42:54.490Z,4.47
2019-05-14T07:45:25.796Z,4.00
2019-05-14T07:47:58.265Z,4.20
2019-05-14T07:50:29.580Z,4.43
2019-05-14T07:53:03.124Z,4.90
2019-05-14T07:55:33.779Z,5.10
2019-05-14T07:58:05.060Z,6.00
2019-05-14T08:00:36.407Z,5.43
2019-05-14T08:03:08.221Z,5.03
2019-05-14T08:05:42.599Z,4.40
2019-05-14T08:08:13.905Z,4.30
2019-05-14T08:10:45.183Z,4.93
2019-05-14T08:13:18.868Z,5.10
2019-05-14T08:15:49.301Z,5.07
2019-05-14T08:18:20.922Z,4.13
2019-05-14T08:20:52.187Z,5.30
2019-05-14T08:23:28.193Z,5.00
2019-05-14T08:26:03.718Z,4.10
2019-05-14T08:28:32.435Z,5.20
2019-05-14T08:31:03.669Z,4.40
2019-05-14T08:33:34.917Z,5.10
2019-05-14T08:36:06.175Z,5.10
2019-05-14T08:38:38.290Z,4.87
2019-05-14T08:41:10.009Z,4.70
2019-05-14T08:43:41.268Z,4.90
2019-05-14T08:46:12.468Z,4.03
2019-05-14T08:48:44.825Z,4.60
2019-05-14T08:51:18.496Z,4.57
2019-05-14T08:53:50.551Z,4.73
2019-05-14T08:56:22.033Z,4.10
2019-05-14T08:58:53.290Z,4.27
2019-05-14T09:01:24.853Z,4.47
2019-05-14T09:03:56.145Z,4.10
2019-05-14T09:06:28.993Z,4.20
2019-05-14T09:09:00.334Z,3.87
2019-05-14T09:11:35.411Z,4.30
2019-05-14T09:14:04.569Z,3.73
2019-05-14T09:16:42.756Z,3.50
2019-05-14T09:19:08.851Z,3.20
2019-05-14T09:21:40.152Z,3.50
2019-05-14T09:24:11.431Z,3.40
2019-05-14T09:26:42.700Z,3.50
2019-05-14T09:29:22.122Z,3.67
2019-05-14T09:31:49.751Z,2.63
2019-05-14T09:34:20.944Z,3.17
2019-05-14T09:36:52.159Z,2.73
2019-05-14T09:39:23.730Z,2.70
2019-05-14T09:41:54.996Z,3.10
2019-05-14T09:44:26.274Z,3.40
2019-05-14T09:46:59.398Z,3.40
2019-05-14T09:49:30.484Z,2.30
2019-05-14T09:52:05.418Z,3.60
2019-05-14T09:54:39.391Z,2.30
2019-05-14T09:57:09.567Z,3.07
2019-05-14T09:59:40.755Z,3.10
2019-05-14T10:02:11.992Z,2.73
2019-05-14T10:04:43.264Z,3.23
2019-05-14T10:07:15.731Z,2.80
2019-05-14T10:09:49.308Z,3.30
2019-05-14T10:12:20.342Z,3.23
2019-05-14T10:14:52.892Z,4.13
2019-05-14T10:17:24.140Z,2.63
2019-05-14T10:19:55.370Z,3.00
2019-05-14T10:22:28.565Z,2.87
2019-05-14T10:24:59.504Z,3.20
2019-05-14T10:27:30.739Z,3.73
2019-05-14T10:30:02.009Z,2.93
2019-05-14T10:32:33.269Z,3.40
2019-05-14T10:35:04.704Z,3.30
2019-05-14T10:37:35.871Z,3.40
2019-05-14T10:40:10.361Z,3.20
2019-05-14T10:42:41.402Z,3.50
2019-05-14T10:45:13.205Z,3.20
2019-05-14T10:47:44.445Z,3.13
2019-05-14T10:50:18.258Z,3.40
2019-05-14T10:52:49.283Z,3.10
2019-05-14T10:55:20.559Z,3.30
2019-05-14T10:58:02.430Z,3.00
2019-05-14T11:00:34.968Z,3.07
2019-05-14T11:03:06.131Z,3.47
2019-05-14T11:05:41.255Z,2.50
2019-05-14T11:08:11.899Z,3.07
2019-05-14T11:10:43.464Z,2.67
2019-05-14T11:13:14.809Z,3.30
2019-05-14T11:15:48.457Z,3.00
2019-05-14T11:18:19.937Z,3.07
2019-05-14T11:20:54.090Z,3.10
2019-05-14T11:23:25.324Z,3.60
2019-05-14T11:25:59.359Z,3.30
2019-05-14T11:28:30.610Z,3.70
2019-05-14T11:31:01.724Z,3.33
2019-05-14T11:33:33.396Z,2.60
2019-05-14T11:36:04.703Z,4.10
2019-05-14T11:38:37.579Z,3.20
2019-05-14T11:41:09.742Z,2.70
2019-05-14T11:43:41.162Z,2.73
2019-05-14T11:46:12.572Z,3.07
2019-05-14T11:48:43.866Z,2.60
2019-05-14T11:51:15.130Z,2.87
2019-05-14T11:53:49.224Z,3.10
2019-05-14T11:56:19.696Z,2.60
2019-05-14T11:58:51.214Z,2.67
2019-05-14T12:01:22.455Z,2.70
2019-05-14T12:03:54.828Z,2.47
2019-05-14T12:06:26.022Z,3.10
2019-05-14T12:08:58.828Z,2.70
2019-05-14T12:11:30.059Z,3.00
2019-05-14T12:14:01.335Z,2.97
2019-05-14T12:16:32.572Z,2.90
2019-05-14T12:19:03.799Z,3.13
2019-05-14T12:21:35.054Z,3.07
2019-05-14T12:24:08.668Z,2.70
2019-05-14T12:26:39.173Z,3.10
2019-05-14T12:29:10.378Z,2.60
2019-05-14T12:31:41.687Z,3.00
2019-05-14T12:34:12.913Z,2.60
2019-05-14T12:36:44.157Z,3.10
2019-05-14T12:39:15.410Z,3.33
2019-05-14T12:41:48.857Z,3.03
2019-05-14T12:44:19.757Z,3.40
2019-05-14T12:46:51.117Z,2.20
2019-05-14T12:49:22.356Z,2.40
2019-05-14T12:51:53.569Z,3.40
2019-05-14T12:54:24.870Z,2.90
2019-05-14T12:56:56.161Z,3.20
2019-05-14T12:59:28.539Z,3.10
2019-05-14T13:02:01.174Z,2.60
2019-05-14T13:04:32.447Z,2.50
2019-05-14T13:07:09.158Z,3.03
2019-05-14T13:09:39.894Z,2.83
2019-05-14T13:12:11.498Z,2.90
2019-05-14T13:14:43.414Z,3.27
2019-05-14T13:17:14.687Z,2.60
2019-05-14T13:19:45.878Z,2.80
2019-05-14T13:22:20.867Z,4.10
2019-05-14T13:24:49.962Z,3.93
2019-05-14T13:27:21.241Z,2.93
2019-05-14T13:29:52.940Z,3.10
2019-05-14T13:32:24.187Z,2.67
2019-05-14T13:35:13.601Z,2.40
2019-05-14T13:37:49.042Z,2.43
2019-05-14T13:40:28.425Z,4.03
2019-05-14T13:43:05.745Z,2.47
2019-05-14T13:45:39.105Z,2.43
2019-05-14T13:48:10.099Z,2.13
2019-05-14T13:50:41.405Z,2.57
2019-05-14T13:53:13.158Z,2.90
2019-05-14T13:55:47.863Z,3.20
2019-05-14T13:58:21.159Z,2.20
2019-05-14T14:00:53.634Z,2.70
2019-05-14T14:03:29.279Z,2.57
2019-05-14T14:06:00.903Z,2.57
2019-05-14T14:08:32.347Z,2.30
2019-05-14T14:11:04.430Z,2.50
2019-05-14T14:13:35.989Z,2.70
2019-05-14T14:16:13.724Z,2.40
2019-05-14T14:18:40.414Z,2.73
2019-05-14T14:21:12.055Z,2.20
2019-05-14T14:23:43.390Z,2.37
2019-05-14T14:26:14.910Z,2.30
2019-05-14T14:28:49.001Z,3.00
2019-05-14T14:31:19.192Z,2.20
2019-05-14T14:33:50.468Z,2.43
2019-05-14T14:36:21.649Z,2.00
2019-05-14T14:38:52.926Z,2.30
2019-05-14T14:41:24.164Z,2.50
2019-05-14T14:43:58.276Z,2.57
2019-05-14T14:46:29.505Z,2.13
2019-05-14T14:49:02.639Z,3.03
2019-05-14T14:51:33.583Z,2.63
2019-05-14T14:54:10.610Z,2.20
2019-05-14T14:56:38.022Z,3.57
2019-05-14T14:59:09.665Z,2.17
2019-05-14T15:01:40.917Z,1.90
2019-05-14T15:04:13.540Z,2.47
2019-05-14T15:06:45.265Z,2.60
2019-05-14T15:09:23.519Z,2.30
2019-05-14T15:12:05.640Z,2.80
2019-05-14T15:14:39.830Z,2.53
2019-05-14T15:17:12.752Z,2.23
2019-05-14T15:19:45.337Z,2.50
2019-05-14T15:22:21.008Z,2.80
2019-05-14T15:24:51.801Z,2.00
2019-05-14T15:27:24.069Z,2.30
2019-05-14T15:30:01.116Z,2.30
2019-05-14T15:32:34.437Z,2.13
2019-05-14T15:35:18.899Z,2.17
2019-05-14T15:37:51.006Z,2.27
2019-05-14T15:40:28.916Z,1.90
2019-05-14T15:43:01.977Z,2.33
2019-05-14T15:45:35.234Z,2.40
2019-05-14T15:48:09.026Z,2.23
2019-05-14T15:50:50.183Z,2.40
2019-05-14T15:53:31.276Z,2.57
2019-05-14T15:56:04.096Z,2.37
2019-05-14T15:58:38.756Z,2.10
2019-05-14T16:01:10.539Z,1.77
2019-05-14T16:03:41.943Z,2.33
2019-05-14T16:06:13.174Z,3.03
2019-05-14T16:08:44.430Z,2.43
2019-05-14T16:11:18.622Z,2.83
2019-05-14T16:13:50.096Z,2.40
2019-05-14T16:16:21.415Z,1.80
2019-05-14T16:18:52.639Z,2.27
2019-05-14T16:21:23.921Z,1.70
2019-05-14T16:23:55.150Z,1.77
2019-05-14T16:26:28.980Z,2.20
2019-05-14T16:28:59.481Z,1.97
2019-05-14T16:31:43.438Z,2.17
2019-05-14T16:34:12.753Z,1.83
2019-05-14T16:36:43.923Z,1.90
2019-05-14T16:39:21.790Z,1.80
2019-05-14T16:41:53.045Z,2.20
2019-05-14T16:44:24.332Z,1.80
2019-05-14T16:46:55.687Z,1.60
2019-05-14T16:49:29.407Z,2.30
2019-05-14T16:51:59.810Z,1.93
2019-05-14T16:54:32.720Z,2.10
2019-05-14T16:57:03.972Z,1.70
2019-05-14T16:59:39.303Z,2.00
2019-05-14T17:02:15.500Z,1.90
2019-05-14T17:04:48.296Z,1.60
2019-05-14T17:07:22.682Z,2.00
2019-05-14T17:09:59.553Z,1.70
2019-05-14T17:12:48.220Z,1.73
2019-05-14T17:15:18.147Z,1.43
2019-05-14T17:17:51.836Z,2.97
2019-05-14T17:20:29.432Z,1.23
2019-05-14T17:23:01.163Z,2.07
2019-05-14T17:25:39.198Z,1.60
2019-05-14T17:28:14.349Z,1.47
2019-05-14T17:30:55.543Z,1.30
2019-05-14T17:33:35.649Z,1.50
2019-05-14T17:36:09.671Z,1.47
2019-05-14T17:38:44.575Z,1.77
2019-05-14T17:41:19.497Z,1.73
2019-05-14T17:43:54.261Z,1.83
2019-05-14T17:46:29.400Z,1.73
2019-05-14T17:49:03.681Z,1.43
2019-05-14T17:51:39.281Z,1.80
2019-05-14T17:54:10.588Z,1.40
2019-05-14T17:56:45.789Z,1.70
2019-05-14T17:59:19.112Z,1.60
2019-05-14T18:01:50.181Z,1.70
2019-05-14T18:04:21.821Z,1.40
2019-05-14T18:07:01.305Z,2.77
2019-05-14T18:09:32.614Z,1.57
2019-05-14T18:12:15.437Z,1.60
2019-05-14T18:14:49.108Z,2.00
2019-05-14T18:17:29.594Z,1.70
2019-05-14T18:20:02.761Z,1.80
2019-05-14T18:22:42.647Z,1.70
2019-05-14T18:25:19.249Z,1.10
2019-05-14T18:27:50.549Z,1.43
2019-05-14T18:30:23.443Z,1.90
2019-05-14T18:32:54.784Z,2.17
2019-05-14T18:35:26.138Z,1.70
2019-05-14T18:37:57.383Z,2.00
2019-05-14T18:40:31.563Z,2.17
2019-05-14T18:43:08.448Z,1.50
2019-05-14T18:45:39.129Z,1.67
2019-05-14T18:48:10.497Z,1.70
2019-05-14T18:50:41.997Z,1.53
2019-05-14T18:53:16.201Z,1.73
2019-05-14T18:55:48.965Z,1.57
2019-05-14T18:58:30.902Z,1.30
2019-05-14T19:01:02.270Z,2.00
2019-05-14T19:03:49.209Z,1.57
2019-05-14T19:06:23.586Z,1.73
2019-05-14T19:08:55.087Z,1.70
2019-05-14T19:11:28.057Z,2.00
2019-05-14T19:13:59.483Z,1.70
2019-05-14T19:16:32.203Z,1.63
2019-05-14T19:19:03.414Z,1.77
2019-05-14T19:21:34.868Z,2.33
2019-05-14T19:24:10.054Z,3.07
2019-05-14T19:26:41.304Z,2.20
2019-05-14T19:29:12.690Z,2.90
2019-05-14T19:31:44.070Z,2.63
2019-05-14T19:34:15.284Z,2.37
2019-05-14T19:36:46.593Z,3.27
2019-05-14T19:39:25.112Z,2.43
2019-05-14T19:41:56.330Z,2.87
2019-05-14T19:44:29.626Z,3.33
2019-05-14T19:47:00.394Z,2.27
2019-05-14T19:49:34.416Z,2.10
2019-05-14T19:52:08.195Z,2.97
2019-05-14T19:54:41.007Z,2.07
2019-05-14T19:57:15.377Z,2.90
2019-05-14T19:59:49.258Z,2.90
2019-05-14T20:02:20.996Z,2.07
2019-05-14T20:04:52.450Z,1.83
2019-05-14T20:07:23.833Z,3.10
2019-05-14T20:09:55.095Z,2.60
2019-05-14T20:12:28.614Z,2.77
2019-05-14T20:15:03.076Z,3.20
2019-05-14T20:17:39.409Z,1.60
2019-05-14T20:20:10.996Z,2.47
2019-05-14T20:22:59.036Z,2.17
2019-05-14T20:25:30.268Z,2.00
2019-05-14T20:28:01.497Z,2.40
2019-05-14T20:30:34.220Z,2.37
2019-05-14T20:33:05.458Z,2.40
2019-05-14T20:35:40.526Z,2.87
2019-05-14T20:38:11.983Z,2.10
2019-05-14T20:40:49.405Z,2.30
2019-05-14T20:43:20.812Z,2.20
2019-05-14T20:45:52.138Z,1.90
2019-05-14T20:48:23.504Z,1.90
2019-05-14T20:50:57.851Z,1.93
2019-05-14T20:53:31.944Z,2.00
2019-05-14T20:56:03.148Z,1.90
2019-05-14T20:58:34.850Z,2.10
2019-05-14T21:01:11.172Z,2.17
2019-05-14T21:03:39.532Z,2.17
2019-05-14T21:06:10.904Z,1.90
2019-05-14T21:08:43.762Z,2.43
2019-05-14T21:11:15.169Z,2.40
2019-05-14T21:13:50.006Z,2.10
2019-05-14T21:16:19.484Z,2.10
2019-05-14T21:18:50.868Z,2.57
2019-05-14T21:21:22.216Z,2.23
2019-05-14T21:23:53.499Z,2.20
2019-05-14T21:26:24.882Z,2.37
2019-05-14T21:28:58.164Z,2.17
2019-05-14T21:31:29.172Z,2.50
2019-05-14T21:34:00.436Z,2.60
2019-05-14T21:36:31.775Z,2.20
2019-05-14T21:39:03.110Z,3.10
2019-05-14T21:41:34.420Z,2.73
2019-05-14T21:44:08.047Z,2.50
2019-05-14T21:46:39.852Z,2.50
2019-05-14T21:49:11.609Z,2.13
2019-05-14T21:51:44.035Z,2.43
2019-05-14T21:54:15.362Z,3.00
2019-05-14T21:56:49.363Z,3.10
2019-05-14T21:59:19.668Z,2.10
2019-05-14T22:01:51.030Z,2.50
2019-05-14T22:04:22.357Z,3.10
2019-05-14T22:06:53.721Z,2.40
2019-05-14T22:09:24.939Z,2.77
2019-05-14T22:11:58.212Z,2.20
2019-05-14T22:14:29.194Z,2.70
2019-05-14T22:17:00.536Z,2.40
2019-05-14T22:19:31.853Z,2.57
2019-05-14T22:22:03.289Z,2.50
2019-05-14T22:24:34.501Z,2.53
2019-05-14T22:27:05.811Z,2.90
2019-05-14T22:29:37.171Z,2.40
2019-05-14T22:32:08.464Z,9.50
2019-05-14T22:34:42.884Z,2.10
2019-05-14T22:37:14.183Z,3.30
2019-05-14T22:39:45.527Z,3.43
2019-05-14T22:42:18.725Z,3.77
2019-05-14T22:44:50.443Z,3.07
2019-05-14T22:47:21.854Z,2.60
2019-05-14T22:49:53.133Z,2.47
2019-05-14T22:52:24.444Z,2.90
2019-05-14T22:54:55.772Z,3.50
2019-05-14T22:57:30.897Z,3.10
2019-05-14T23:00:00.000Z,2.57
2019-05-14T23:02:31.284Z,2.67
2019-05-14T23:05:02.632Z,3.10
2019-05-14T23:07:33.952Z,2.83
2019-05-14T23:10:05.415Z,3.53
2019-05-14T23:12:38.470Z,3.13
2019-05-14T23:15:13.886Z,3.30
2019-05-14T23:17:45.158Z,3.10
2019-05-14T23:20:19.366Z,3.87
2019-05-14T23:22:49.793Z,3.00
2019-05-14T23:25:21.084Z,3.13
2019-05-14T23:27:52.350Z,3.50
2019-05-14T23:30:34.037Z,3.77
2019-05-14T23:33:19.348Z,3.57
2019-05-14T23:35:50.963Z,2.60
2019-05-14T23:38:22.260Z,3.37
2019-05-14T23:40:53.521Z,3.27
2019-05-14T23:43:24.828Z,2.80
2019-05-14T23:45:58.250Z,3.03
2019-05-14T23:48:29.050Z,3.30
2019-05-14T23:51:00.396Z,3.87
2019-05-14T23:53:31.686Z,2.70
2019-05-14T23:56:03.055Z,3.10
2019-05-14T23:58:34.217Z,3.60
